Portada
METAR-TAF:

METAR-TAF

Aeroports :

Pottstown Limerick Airport

Pottstown, Pennsilvània, Estats Units d'Amèrica

latitud: 40-14-18N, longitud: 075-33-26W, altitud: 89 m

Observació

L'informe es va fer fa 23 minuts, a les 08:22 UTC
Vent calma
Temperatura 22°C
Humitat 100%
Pressió 1013 hPa
Visibilitat: 6.4 km
Escasses núvols a una alçada de 300 ft
Cel ennuvolat a una alçada de 1800 ft
Cel cobert a una alçada de 7000 ft
pluja, boirina

METAR: KPTW 180822Z AUTO 00000KT 4SM RA BR FEW003 BKN018 OVC070 22/22 A2991 RMK AO2 P0008 T02220222 $

Hora: 04:45 (08:45 UTC)


TAF: manca

Observacions i pronòstics meteorològics de més de 4000 aeroports (METAR i TAF).

Les estacions disponibles són els punts grocs i vermells al mapa.

Posi el ratolí al punt desitjat per veure el nom de l'estació.

Feu clic per veure les observacions i els pronòstics meteorològics.

Per canviar el mapa: feu clic els botons verds amb una creu de color negre per apropar; al botó verd amb un guió per allunyar la imatge; o en les fletxes verdes per a mapes adjacents.


METAR-TAF: